sensor_id;sensor_type;location;lat;lon;timestamp;temperature;humidity
17442;DHT22;8838;50.144;8.176;2023-01-13T00:00:01;8.20;99.90
17442;DHT22;8838;50.144;8.176;2023-01-13T00:02:29;8.30;99.90
17442;DHT22;8838;50.144;8.176;2023-01-13T00:04:56;8.30;99.90
17442;DHT22;8838;50.144;8.176;2023-01-13T00:07:23;8.30;99.90
17442;DHT22;8838;50.144;8.176;2023-01-13T00:09:50;8.30;99.90
17442;DHT22;8838;50.144;8.176;2023-01-13T00:12:17;8.30;99.90
17442;DHT22;8838;50.144;8.176;2023-01-13T00:14:43;8.30;99.90
17442;DHT22;8838;50.144;8.176;2023-01-13T00:17:10;8.30;99.90
17442;DHT22;8838;50.144;8.176;2023-01-13T00:19:41;8.30;99.90
17442;DHT22;8838;50.144;8.176;2023-01-13T00:22:09;8.30;99.90
17442;DHT22;8838;50.144;8.176;2023-01-13T00:24:36;8.30;99.90
17442;DHT22;8838;50.144;8.176;2023-01-13T00:27:03;8.30;99.90
17442;DHT22;8838;50.144;8.176;2023-01-13T00:29:29;8.40;99.90
17442;DHT22;8838;50.144;8.176;2023-01-13T00:31:56;8.40;99.90
17442;DHT22;8838;50.144;8.176;2023-01-13T00:34:23;8.40;99.90
17442;DHT22;8838;50.144;8.176;2023-01-13T00:36:51;8.40;99.90
17442;DHT22;8838;50.144;8.176;2023-01-13T00:39:18;8.40;99.90
17442;DHT22;8838;50.144;8.176;2023-01-13T00:41:45;8.40;99.90
17442;DHT22;8838;50.144;8.176;2023-01-13T00:44:29;8.40;99.90
17442;DHT22;8838;50.144;8.176;2023-01-13T00:46:56;8.40;99.90
17442;DHT22;8838;50.144;8.176;2023-01-13T00:49:23;8.40;99.90
17442;DHT22;8838;50.144;8.176;2023-01-13T00:51:51;8.40;99.90
17442;DHT22;8838;50.144;8.176;2023-01-13T00:54:18;8.40;99.90
17442;DHT22;8838;50.144;8.176;2023-01-13T00:56:45;8.40;99.90
17442;DHT22;8838;50.144;8.176;2023-01-13T00:59:12;8.40;99.90
17442;DHT22;8838;50.144;8.176;2023-01-13T01:01:40;8.40;99.90
17442;DHT22;8838;50.144;8.176;2023-01-13T01:04:07;8.40;99.90
17442;DHT22;8838;50.144;8.176;2023-01-13T01:06:34;8.40;99.90
17442;DHT22;8838;50.144;8.176;2023-01-13T01:09:03;8.40;99.90
17442;DHT22;8838;50.144;8.176;2023-01-13T01:11:31;8.40;99.90
17442;DHT22;8838;50.144;8.176;2023-01-13T01:14:00;8.40;99.90
17442;DHT22;8838;50.144;8.176;2023-01-13T01:16:28;8.30;99.90
17442;DHT22;8838;50.144;8.176;2023-01-13T01:18:56;8.30;99.90
17442;DHT22;8838;50.144;8.176;2023-01-13T01:21:25;8.30;99.90
17442;DHT22;8838;50.144;8.176;2023-01-13T01:23:52;8.30;99.90
17442;DHT22;8838;50.144;8.176;2023-01-13T01:26:23;8.30;99.90
17442;DHT22;8838;50.144;8.176;2023-01-13T01:28:50;8.40;99.90
17442;DHT22;8838;50.144;8.176;2023-01-13T01:31:19;8.40;99.90
17442;DHT22;8838;50.144;8.176;2023-01-13T01:33:46;8.40;99.90
17442;DHT22;8838;50.144;8.176;2023-01-13T01:36:15;8.40;99.90
17442;DHT22;8838;50.144;8.176;2023-01-13T01:38:43;8.40;99.90
17442;DHT22;8838;50.144;8.176;2023-01-13T01:41:13;8.40;99.90
17442;DHT22;8838;50.144;8.176;2023-01-13T01:43:48;8.40;99.90
17442;DHT22;8838;50.144;8.176;2023-01-13T01:46:24;8.40;99.90
17442;DHT22;8838;50.144;8.176;2023-01-13T01:48:51;8.50;99.90
17442;DHT22;8838;50.144;8.176;2023-01-13T01:51:19;8.50;99.90
17442;DHT22;8838;50.144;8.176;2023-01-13T01:53:46;8.40;99.90
17442;DHT22;8838;50.144;8.176;2023-01-13T01:56:14;8.40;99.90
17442;DHT22;8838;50.144;8.176;2023-01-13T01:58:47;8.40;99.90
17442;DHT22;8838;50.144;8.176;2023-01-13T02:01:16;8.40;99.90
17442;DHT22;8838;50.144;8.176;2023-01-13T02:03:49;8.40;99.90
17442;DHT22;8838;50.144;8.176;2023-01-13T02:06:18;8.40;99.90
17442;DHT22;8838;50.144;8.176;2023-01-13T02:08:45;8.40;99.90
17442;DHT22;8838;50.144;8.176;2023-01-13T02:11:41;8.50;99.90
17442;DHT22;8838;50.144;8.176;2023-01-13T02:14:28;8.40;99.90
17442;DHT22;8838;50.144;8.176;2023-01-13T02:17:09;8.40;99.90
17442;DHT22;8838;50.144;8.176;2023-01-13T02:23:11;8.30;99.90
17442;DHT22;8838;50.144;8.176;2023-01-13T02:28:54;8.40;99.90
17442;DHT22;8838;50.144;8.176;2023-01-13T02:31:47;8.40;99.90
17442;DHT22;8838;50.144;8.176;2023-01-13T02:34:21;8.30;99.90
17442;DHT22;8838;50.144;8.176;2023-01-13T02:36:52;8.40;99.90
17442;DHT22;8838;50.144;8.176;2023-01-13T02:39:26;8.40;99.90
17442;DHT22;8838;50.144;8.176;2023-01-13T02:41:59;8.40;99.90
17442;DHT22;8838;50.144;8.176;2023-01-13T02:44:47;8.40;99.90
17442;DHT22;8838;50.144;8.176;2023-01-13T02:47:20;8.30;99.90
17442;DHT22;8838;50.144;8.176;2023-01-13T02:49:49;8.30;99.90
17442;DHT22;8838;50.144;8.176;2023-01-13T02:52:22;8.30;99.90
17442;DHT22;8838;50.144;8.176;2023-01-13T02:54:53;8.30;99.90
17442;DHT22;8838;50.144;8.176;2023-01-13T02:57:22;8.30;99.90
17442;DHT22;8838;50.144;8.176;2023-01-13T02:59:53;8.30;99.90
17442;DHT22;8838;50.144;8.176;2023-01-13T03:02:22;8.30;99.90
17442;DHT22;8838;50.144;8.176;2023-01-13T03:04:52;8.20;99.90
17442;DHT22;8838;50.144;8.176;2023-01-13T03:07:45;8.30;99.90
17442;DHT22;8838;50.144;8.176;2023-01-13T03:10:26;8.20;99.90
17442;DHT22;8838;50.144;8.176;2023-01-13T03:13:01;8.20;99.90
17442;DHT22;8838;50.144;8.176;2023-01-13T03:15:36;8.30;99.90
17442;DHT22;8838;50.144;8.176;2023-01-13T03:18:16;8.20;99.90
17442;DHT22;8838;50.144;8.176;2023-01-13T03:20:53;8.20;99.90
17442;DHT22;8838;50.144;8.176;2023-01-13T03:23:28;8.30;99.90
17442;DHT22;8838;50.144;8.176;2023-01-13T03:26:03;8.30;99.90
17442;DHT22;8838;50.144;8.176;2023-01-13T03:28:37;8.30;99.90
17442;DHT22;8838;50.144;8.176;2023-01-13T03:31:10;8.30;99.90
17442;DHT22;8838;50.144;8.176;2023-01-13T03:33:42;8.20;99.90
17442;DHT22;8838;50.144;8.176;2023-01-13T03:36:13;8.20;99.90
17442;DHT22;8838;50.144;8.176;2023-01-13T03:38:44;8.30;99.90
17442;DHT22;8838;50.144;8.176;2023-01-13T03:41:16;8.30;99.90
17442;DHT22;8838;50.144;8.176;2023-01-13T03:43:48;8.30;99.90
17442;DHT22;8838;50.144;8.176;2023-01-13T03:46:41;8.30;99.90
17442;DHT22;8838;50.144;8.176;2023-01-13T03:49:14;8.30;99.90
17442;DHT22;8838;50.144;8.176;2023-01-13T03:51:45;8.20;99.90
17442;DHT22;8838;50.144;8.176;2023-01-13T03:54:16;8.20;99.90
17442;DHT22;8838;50.144;8.176;2023-01-13T03:56:46;8.30;99.90
17442;DHT22;8838;50.144;8.176;2023-01-13T03:59:17;8.30;99.90
17442;DHT22;8838;50.144;8.176;2023-01-13T04:01:50;8.30;99.90
17442;DHT22;8838;50.144;8.176;2023-01-13T04:04:25;8.30;99.90
17442;DHT22;8838;50.144;8.176;2023-01-13T04:06:59;8.40;99.90
17442;DHT22;8838;50.144;8.176;2023-01-13T04:09:30;8.30;99.90
17442;DHT22;8838;50.144;8.176;2023-01-13T04:12:02;8.30;99.90
17442;DHT22;8838;50.144;8.176;2023-01-13T04:14:32;8.40;99.90
17442;DHT22;8838;50.144;8.176;2023-01-13T04:17:00;8.30;99.90
17442;DHT22;8838;50.144;8.176;2023-01-13T04:19:28;8.30;99.90
17442;DHT22;8838;50.144;8.176;2023-01-13T04:21:56;8.30;99.90
17442;DHT22;8838;50.144;8.176;2023-01-13T04:24:23;8.30;99.90
17442;DHT22;8838;50.144;8.176;2023-01-13T04:26:50;8.30;99.90
17442;DHT22;8838;50.144;8.176;2023-01-13T04:29:17;8.30;99.90
17442;DHT22;8838;50.144;8.176;2023-01-13T04:31:44;8.30;99.90
17442;DHT22;8838;50.144;8.176;2023-01-13T04:34:11;8.30;99.90
17442;DHT22;8838;50.144;8.176;2023-01-13T04:36:39;8.30;99.90
17442;DHT22;8838;50.144;8.176;2023-01-13T04:39:06;8.20;99.90
17442;DHT22;8838;50.144;8.176;2023-01-13T04:41:33;8.20;99.90
17442;DHT22;8838;50.144;8.176;2023-01-13T04:44:14;8.20;99.90
17442;DHT22;8838;50.144;8.176;2023-01-13T04:46:40;8.30;99.90
17442;DHT22;8838;50.144;8.176;2023-01-13T04:49:07;8.30;99.90
17442;DHT22;8838;50.144;8.176;2023-01-13T04:51:34;8.30;99.90
17442;DHT22;8838;50.144;8.176;2023-01-13T04:54:03;8.30;99.90
17442;DHT22;8838;50.144;8.176;2023-01-13T04:56:30;8.10;99.90
17442;DHT22;8838;50.144;8.176;2023-01-13T04:58:57;7.90;99.90
17442;DHT22;8838;50.144;8.176;2023-01-13T05:01:24;7.80;99.90
17442;DHT22;8838;50.144;8.176;2023-01-13T05:03:51;7.70;99.90
17442;DHT22;8838;50.144;8.176;2023-01-13T05:06:18;7.60;99.90
17442;DHT22;8838;50.144;8.176;2023-01-13T05:08:44;7.50;99.90
17442;DHT22;8838;50.144;8.176;2023-01-13T05:11:12;7.50;99.90
17442;DHT22;8838;50.144;8.176;2023-01-13T05:13:57;7.40;99.90
17442;DHT22;8838;50.144;8.176;2023-01-13T05:16:41;7.30;99.90
17442;DHT22;8838;50.144;8.176;2023-01-13T05:19:26;7.30;99.90
17442;DHT22;8838;50.144;8.176;2023-01-13T05:21:53;7.20;99.90
17442;DHT22;8838;50.144;8.176;2023-01-13T05:24:37;7.20;99.90
17442;DHT22;8838;50.144;8.176;2023-01-13T05:27:23;7.10;99.90
17442;DHT22;8838;50.144;8.176;2023-01-13T05:29:50;7.10;99.90
17442;DHT22;8838;50.144;8.176;2023-01-13T05:32:16;7.10;99.90
17442;DHT22;8838;50.144;8.176;2023-01-13T05:34:43;7.00;99.90
17442;DHT22;8838;50.144;8.176;2023-01-13T05:37:10;7.00;99.90
17442;DHT22;8838;50.144;8.176;2023-01-13T05:39:37;7.00;99.90
17442;DHT22;8838;50.144;8.176;2023-01-13T05:42:18;6.90;99.90
17442;DHT22;8838;50.144;8.176;2023-01-13T05:45:04;6.90;99.90
17442;DHT22;8838;50.144;8.176;2023-01-13T05:47:31;6.90;99.90
17442;DHT22;8838;50.144;8.176;2023-01-13T05:49:58;6.90;99.90
17442;DHT22;8838;50.144;8.176;2023-01-13T05:52:25;6.90;99.90
17442;DHT22;8838;50.144;8.176;2023-01-13T05:54:52;6.90;99.90
17442;DHT22;8838;50.144;8.176;2023-01-13T05:57:18;6.90;99.90
17442;DHT22;8838;50.144;8.176;2023-01-13T05:59:45;6.80;99.90
17442;DHT22;8838;50.144;8.176;2023-01-13T06:02:13;6.80;99.90
17442;DHT22;8838;50.144;8.176;2023-01-13T06:04:40;6.80;99.90
17442;DHT22;8838;50.144;8.176;2023-01-13T06:07:07;6.80;99.90
17442;DHT22;8838;50.144;8.176;2023-01-13T06:09:37;6.70;99.90
17442;DHT22;8838;50.144;8.176;2023-01-13T06:12:04;6.80;99.90
17442;DHT22;8838;50.144;8.176;2023-01-13T06:14:31;6.80;99.90
17442;DHT22;8838;50.144;8.176;2023-01-13T06:17:05;6.80;99.90
17442;DHT22;8838;50.144;8.176;2023-01-13T06:19:34;6.80;99.90
17442;DHT22;8838;50.144;8.176;2023-01-13T06:22:07;6.70;99.90
17442;DHT22;8838;50.144;8.176;2023-01-13T06:24:36;6.70;99.90
17442;DHT22;8838;50.144;8.176;2023-01-13T06:27:04;6.70;99.90
17442;DHT22;8838;50.144;8.176;2023-01-13T06:29:31;6.70;99.90
17442;DHT22;8838;50.144;8.176;2023-01-13T06:32:01;6.70;99.90
17442;DHT22;8838;50.144;8.176;2023-01-13T06:34:29;6.70;99.90
17442;DHT22;8838;50.144;8.176;2023-01-13T06:36:58;6.70;99.90
17442;DHT22;8838;50.144;8.176;2023-01-13T06:39:26;6.60;99.90
17442;DHT22;8838;50.144;8.176;2023-01-13T06:41:57;6.60;99.90
17442;DHT22;8838;50.144;8.176;2023-01-13T06:44:43;6.60;99.90
17442;DHT22;8838;50.144;8.176;2023-01-13T06:47:11;6.60;99.90
17442;DHT22;8838;50.144;8.176;2023-01-13T06:49:38;6.60;99.90
17442;DHT22;8838;50.144;8.176;2023-01-13T06:52:07;6.50;99.90
17442;DHT22;8838;50.144;8.176;2023-01-13T06:54:34;6.50;99.90
17442;DHT22;8838;50.144;8.176;2023-01-13T06:57:01;6.40;99.90
17442;DHT22;8838;50.144;8.176;2023-01-13T06:59:28;6.40;99.90
17442;DHT22;8838;50.144;8.176;2023-01-13T07:01:54;6.40;99.90
17442;DHT22;8838;50.144;8.176;2023-01-13T07:04:21;6.50;99.90
17442;DHT22;8838;50.144;8.176;2023-01-13T07:06:48;6.40;99.90
17442;DHT22;8838;50.144;8.176;2023-01-13T07:09:16;6.40;99.90
17442;DHT22;8838;50.144;8.176;2023-01-13T07:11:43;6.30;99.90
17442;DHT22;8838;50.144;8.176;2023-01-13T07:14:11;6.10;99.90
17442;DHT22;8838;50.144;8.176;2023-01-13T07:16:55;6.10;99.90
17442;DHT22;8838;50.144;8.176;2023-01-13T07:19:22;6.10;99.90
17442;DHT22;8838;50.144;8.176;2023-01-13T07:21:50;6.10;99.90
17442;DHT22;8838;50.144;8.176;2023-01-13T07:24:19;6.10;99.90
17442;DHT22;8838;50.144;8.176;2023-01-13T07:26:47;6.10;99.90
17442;DHT22;8838;50.144;8.176;2023-01-13T07:29:14;6.10;99.90
17442;DHT22;8838;50.144;8.176;2023-01-13T07:31:41;6.20;99.90
17442;DHT22;8838;50.144;8.176;2023-01-13T07:34:07;6.20;99.90
17442;DHT22;8838;50.144;8.176;2023-01-13T07:36:34;6.10;99.90
17442;DHT22;8838;50.144;8.176;2023-01-13T07:39:02;6.10;99.90
17442;DHT22;8838;50.144;8.176;2023-01-13T07:41:30;6.10;99.90
17442;DHT22;8838;50.144;8.176;2023-01-13T07:44:14;6.20;99.90
17442;DHT22;8838;50.144;8.176;2023-01-13T07:46:41;6.20;99.90
17442;DHT22;8838;50.144;8.176;2023-01-13T07:49:09;6.20;99.90
17442;DHT22;8838;50.144;8.176;2023-01-13T07:51:36;6.30;99.90
17442;DHT22;8838;50.144;8.176;2023-01-13T07:54:04;6.30;99.90
17442;DHT22;8838;50.144;8.176;2023-01-13T07:56:32;6.30;99.90
17442;DHT22;8838;50.144;8.176;2023-01-13T07:58:59;6.30;99.90
17442;DHT22;8838;50.144;8.176;2023-01-13T08:01:26;6.30;99.90
17442;DHT22;8838;50.144;8.176;2023-01-13T08:03:54;6.40;99.90
17442;DHT22;8838;50.144;8.176;2023-01-13T08:06:23;6.40;99.90
17442;DHT22;8838;50.144;8.176;2023-01-13T08:08:50;6.50;99.90
17442;DHT22;8838;50.144;8.176;2023-01-13T08:11:17;6.50;99.90
17442;DHT22;8838;50.144;8.176;2023-01-13T08:13:45;6.60;99.90
17442;DHT22;8838;50.144;8.176;2023-01-13T08:16:13;6.70;99.90
17442;DHT22;8838;50.144;8.176;2023-01-13T08:18:40;6.70;99.90
17442;DHT22;8838;50.144;8.176;2023-01-13T08:21:09;6.80;99.90
17442;DHT22;8838;50.144;8.176;2023-01-13T08:23:37;6.80;99.90
17442;DHT22;8838;50.144;8.176;2023-01-13T08:26:05;6.90;99.90
17442;DHT22;8838;50.144;8.176;2023-01-13T08:28:33;6.90;99.90
17442;DHT22;8838;50.144;8.176;2023-01-13T08:31:03;6.90;99.90
17442;DHT22;8838;50.144;8.176;2023-01-13T08:33:30;6.80;99.90
17442;DHT22;8838;50.144;8.176;2023-01-13T08:35:57;6.70;99.90
17442;DHT22;8838;50.144;8.176;2023-01-13T08:38:24;6.70;99.90
17442;DHT22;8838;50.144;8.176;2023-01-13T08:40:51;6.70;99.90
17442;DHT22;8838;50.144;8.176;2023-01-13T08:43:18;6.70;99.90
17442;DHT22;8838;50.144;8.176;2023-01-13T08:45:45;6.70;99.90
17442;DHT22;8838;50.144;8.176;2023-01-13T08:48:13;6.70;99.90
17442;DHT22;8838;50.144;8.176;2023-01-13T08:50:40;6.70;99.90
17442;DHT22;8838;50.144;8.176;2023-01-13T08:53:07;6.70;99.90
17442;DHT22;8838;50.144;8.176;2023-01-13T08:55:33;6.80;99.90
17442;DHT22;8838;50.144;8.176;2023-01-13T08:58:00;6.80;99.90
17442;DHT22;8838;50.144;8.176;2023-01-13T09:00:27;6.90;99.90
17442;DHT22;8838;50.144;8.176;2023-01-13T09:02:54;6.90;99.90
17442;DHT22;8838;50.144;8.176;2023-01-13T09:05:22;7.10;99.90
17442;DHT22;8838;50.144;8.176;2023-01-13T09:07:49;7.30;99.90
17442;DHT22;8838;50.144;8.176;2023-01-13T09:10:16;7.50;99.90
17442;DHT22;8838;50.144;8.176;2023-01-13T09:12:43;7.50;99.90
17442;DHT22;8838;50.144;8.176;2023-01-13T09:15:27;7.40;99.90
17442;DHT22;8838;50.144;8.176;2023-01-13T09:17:53;7.50;99.90
17442;DHT22;8838;50.144;8.176;2023-01-13T09:20:21;7.60;99.90
17442;DHT22;8838;50.144;8.176;2023-01-13T09:22:48;7.50;99.90
17442;DHT22;8838;50.144;8.176;2023-01-13T09:25:15;7.40;99.90
17442;DHT22;8838;50.144;8.176;2023-01-13T09:27:42;7.50;99.90
17442;DHT22;8838;50.144;8.176;2023-01-13T09:30:10;7.80;99.90
17442;DHT22;8838;50.144;8.176;2023-01-13T09:32:37;7.90;99.90
17442;DHT22;8838;50.144;8.176;2023-01-13T09:35:04;7.70;99.90
17442;DHT22;8838;50.144;8.176;2023-01-13T09:37:34;7.60;99.90
17442;DHT22;8838;50.144;8.176;2023-01-13T09:40:02;7.50;99.90
17442;DHT22;8838;50.144;8.176;2023-01-13T09:42:39;7.60;99.90
17442;DHT22;8838;50.144;8.176;2023-01-13T09:45:41;7.60;99.90
17442;DHT22;8838;50.144;8.176;2023-01-13T09:48:13;7.80;99.90
17442;DHT22;8838;50.144;8.176;2023-01-13T09:50:56;7.70;99.90
17442;DHT22;8838;50.144;8.176;2023-01-13T09:53:28;7.60;99.90
17442;DHT22;8838;50.144;8.176;2023-01-13T09:55:56;7.50;99.90
17442;DHT22;8838;50.144;8.176;2023-01-13T09:58:23;7.70;99.90
17442;DHT22;8838;50.144;8.176;2023-01-13T10:00:59;8.00;99.90
17442;DHT22;8838;50.144;8.176;2023-01-13T10:03:29;8.20;99.90
17442;DHT22;8838;50.144;8.176;2023-01-13T10:06:00;8.40;99.90
17442;DHT22;8838;50.144;8.176;2023-01-13T10:08:31;8.60;99.90
17442;DHT22;8838;50.144;8.176;2023-01-13T10:11:00;8.60;99.90
17442;DHT22;8838;50.144;8.176;2023-01-13T10:13:53;9.00;99.90
17442;DHT22;8838;50.144;8.176;2023-01-13T10:16:28;9.10;99.90
17442;DHT22;8838;50.144;8.176;2023-01-13T10:19:02;8.80;99.90
17442;DHT22;8838;50.144;8.176;2023-01-13T10:21:48;8.90;99.90
17442;DHT22;8838;50.144;8.176;2023-01-13T10:24:48;8.90;99.90
17442;DHT22;8838;50.144;8.176;2023-01-13T10:27:26;8.30;99.90
17442;DHT22;8838;50.144;8.176;2023-01-13T10:29:55;8.00;99.90
17442;DHT22;8838;50.144;8.176;2023-01-13T10:32:22;7.90;99.90
17442;DHT22;8838;50.144;8.176;2023-01-13T10:34:50;7.80;99.90
17442;DHT22;8838;50.144;8.176;2023-01-13T10:37:22;7.60;99.90
17442;DHT22;8838;50.144;8.176;2023-01-13T10:39:54;7.40;99.90
17442;DHT22;8838;50.144;8.176;2023-01-13T10:42:22;7.30;99.90
17442;DHT22;8838;50.144;8.176;2023-01-13T10:44:51;7.20;99.90
17442;DHT22;8838;50.144;8.176;2023-01-13T10:47:24;7.10;99.90
17442;DHT22;8838;50.144;8.176;2023-01-13T10:50:17;7.10;99.90
17442;DHT22;8838;50.144;8.176;2023-01-13T10:52:58;7.00;99.90
17442;DHT22;8838;50.144;8.176;2023-01-13T10:55:28;7.00;99.90
17442;DHT22;8838;50.144;8.176;2023-01-13T10:57:56;6.80;99.90
17442;DHT22;8838;50.144;8.176;2023-01-13T11:00:27;6.70;99.90
17442;DHT22;8838;50.144;8.176;2023-01-13T11:03:12;6.60;99.90
17442;DHT22;8838;50.144;8.176;2023-01-13T11:05:40;6.50;99.90
17442;DHT22;8838;50.144;8.176;2023-01-13T11:08:16;6.60;99.90
17442;DHT22;8838;50.144;8.176;2023-01-13T11:10:48;6.60;99.90
17442;DHT22;8838;50.144;8.176;2023-01-13T11:13:18;6.70;99.90
17442;DHT22;8838;50.144;8.176;2023-01-13T11:15:51;6.80;99.90
17442;DHT22;8838;50.144;8.176;2023-01-13T11:18:25;6.80;99.90
17442;DHT22;8838;50.144;8.176;2023-01-13T11:20:55;6.90;99.90
17442;DHT22;8838;50.144;8.176;2023-01-13T11:23:29;6.90;99.90
17442;DHT22;8838;50.144;8.176;2023-01-13T11:26:01;7.00;99.90
17442;DHT22;8838;50.144;8.176;2023-01-13T11:28:39;7.10;99.90
17442;DHT22;8838;50.144;8.176;2023-01-13T11:31:13;7.20;99.90
17442;DHT22;8838;50.144;8.176;2023-01-13T11:33:46;7.30;99.90
17442;DHT22;8838;50.144;8.176;2023-01-13T11:36:17;7.40;99.90
17442;DHT22;8838;50.144;8.176;2023-01-13T11:38:48;7.50;99.90
17442;DHT22;8838;50.144;8.176;2023-01-13T11:41:30;7.50;99.90
17442;DHT22;8838;50.144;8.176;2023-01-13T11:44:09;7.60;99.90
17442;DHT22;8838;50.144;8.176;2023-01-13T11:46:39;7.60;99.90
17442;DHT22;8838;50.144;8.176;2023-01-13T11:49:10;7.60;99.90
17442;DHT22;8838;50.144;8.176;2023-01-13T11:51:45;7.60;99.90
17442;DHT22;8838;50.144;8.176;2023-01-13T11:54:48;7.60;99.90
17442;DHT22;8838;50.144;8.176;2023-01-13T12:00:32;7.60;99.90
17442;DHT22;8838;50.144;8.176;2023-01-13T12:03:16;7.50;99.90
17442;DHT22;8838;50.144;8.176;2023-01-13T12:06:01;7.60;99.90
17442;DHT22;8838;50.144;8.176;2023-01-13T12:08:43;7.70;99.90
17442;DHT22;8838;50.144;8.176;2023-01-13T12:11:16;7.70;99.90
17442;DHT22;8838;50.144;8.176;2023-01-13T12:14:01;7.70;99.90
17442;DHT22;8838;50.144;8.176;2023-01-13T12:16:31;7.80;99.90
17442;DHT22;8838;50.144;8.176;2023-01-13T12:19:12;7.80;99.90
17442;DHT22;8838;50.144;8.176;2023-01-13T12:21:56;7.90;99.90
17442;DHT22;8838;50.144;8.176;2023-01-13T12:24:30;8.00;99.90
17442;DHT22;8838;50.144;8.176;2023-01-13T12:27:02;8.10;99.90
17442;DHT22;8838;50.144;8.176;2023-01-13T12:29:33;8.20;99.90
17442;DHT22;8838;50.144;8.176;2023-01-13T12:32:02;8.20;99.90
17442;DHT22;8838;50.144;8.176;2023-01-13T12:34:47;8.20;99.90
17442;DHT22;8838;50.144;8.176;2023-01-13T12:37:21;8.20;99.90
17442;DHT22;8838;50.144;8.176;2023-01-13T12:40:04;8.20;99.90
17442;DHT22;8838;50.144;8.176;2023-01-13T12:42:40;8.20;99.90
17442;DHT22;8838;50.144;8.176;2023-01-13T12:45:32;8.30;99.90
17442;DHT22;8838;50.144;8.176;2023-01-13T12:47:59;8.30;99.90
17442;DHT22;8838;50.144;8.176;2023-01-13T12:50:40;8.30;99.90
17442;DHT22;8838;50.144;8.176;2023-01-13T12:53:32;8.20;99.90
17442;DHT22;8838;50.144;8.176;2023-01-13T12:56:25;8.00;99.90
17442;DHT22;8838;50.144;8.176;2023-01-13T12:59:30;7.90;99.90
17442;DHT22;8838;50.144;8.176;2023-01-13T13:02:25;7.50;99.90
17442;DHT22;8838;50.144;8.176;2023-01-13T13:04:54;7.20;99.90
17442;DHT22;8838;50.144;8.176;2023-01-13T13:07:31;7.00;99.90
17442;DHT22;8838;50.144;8.176;2023-01-13T13:10:01;6.90;99.90
17442;DHT22;8838;50.144;8.176;2023-01-13T13:12:56;6.90;99.90
17442;DHT22;8838;50.144;8.176;2023-01-13T13:15:41;6.80;99.90
17442;DHT22;8838;50.144;8.176;2023-01-13T13:18:25;6.60;99.90
17442;DHT22;8838;50.144;8.176;2023-01-13T13:23:59;6.60;99.90
17442;DHT22;8838;50.144;8.176;2023-01-13T13:26:40;6.70;99.90
17442;DHT22;8838;50.144;8.176;2023-01-13T13:29:33;6.80;99.90
17442;DHT22;8838;50.144;8.176;2023-01-13T13:32:32;7.00;99.90
17442;DHT22;8838;50.144;8.176;2023-01-13T13:35:15;7.10;99.90
17442;DHT22;8838;50.144;8.176;2023-01-13T13:37:57;7.20;99.90
17442;DHT22;8838;50.144;8.176;2023-01-13T13:40:45;7.30;99.90
17442;DHT22;8838;50.144;8.176;2023-01-13T13:43:36;7.40;99.90
17442;DHT22;8838;50.144;8.176;2023-01-13T13:46:24;7.40;99.90
17442;DHT22;8838;50.144;8.176;2023-01-13T13:49:09;7.30;99.90
17442;DHT22;8838;50.144;8.176;2023-01-13T13:51:42;7.30;99.90
17442;DHT22;8838;50.144;8.176;2023-01-13T13:54:12;7.30;99.90
17442;DHT22;8838;50.144;8.176;2023-01-13T13:56:43;7.40;99.90
17442;DHT22;8838;50.144;8.176;2023-01-13T13:59:13;7.40;99.90
17442;DHT22;8838;50.144;8.176;2023-01-13T14:01:43;7.50;99.90
17442;DHT22;8838;50.144;8.176;2023-01-13T14:04:14;7.50;99.90
17442;DHT22;8838;50.144;8.176;2023-01-13T14:06:51;7.60;99.90
17442;DHT22;8838;50.144;8.176;2023-01-13T14:09:20;7.50;99.90
17442;DHT22;8838;50.144;8.176;2023-01-13T14:12:01;7.50;99.90
17442;DHT22;8838;50.144;8.176;2023-01-13T14:14:28;7.50;99.90
17442;DHT22;8838;50.144;8.176;2023-01-13T14:16:55;7.50;99.90
17442;DHT22;8838;50.144;8.176;2023-01-13T14:19:31;7.50;99.90
17442;DHT22;8838;50.144;8.176;2023-01-13T14:22:01;7.50;99.90
17442;DHT22;8838;50.144;8.176;2023-01-13T14:24:30;7.50;99.90
17442;DHT22;8838;50.144;8.176;2023-01-13T14:27:08;7.60;99.90
17442;DHT22;8838;50.144;8.176;2023-01-13T14:29:35;7.50;99.90
17442;DHT22;8838;50.144;8.176;2023-01-13T14:32:03;7.50;99.90
17442;DHT22;8838;50.144;8.176;2023-01-13T14:34:32;7.60;99.90
17442;DHT22;8838;50.144;8.176;2023-01-13T14:37:02;7.60;99.90
17442;DHT22;8838;50.144;8.176;2023-01-13T14:39:45;7.60;99.90
17442;DHT22;8838;50.144;8.176;2023-01-13T14:42:12;7.50;99.90
17442;DHT22;8838;50.144;8.176;2023-01-13T14:44:44;7.50;99.90
17442;DHT22;8838;50.144;8.176;2023-01-13T14:47:22;7.40;99.90
17442;DHT22;8838;50.144;8.176;2023-01-13T14:49:58;7.40;99.90
17442;DHT22;8838;50.144;8.176;2023-01-13T14:52:30;7.40;99.90
17442;DHT22;8838;50.144;8.176;2023-01-13T14:55:25;7.30;99.90
17442;DHT22;8838;50.144;8.176;2023-01-13T15:00:35;7.40;99.90
17442;DHT22;8838;50.144;8.176;2023-01-13T15:03:04;7.30;99.90
17442;DHT22;8838;50.144;8.176;2023-01-13T15:05:41;7.30;99.90
17442;DHT22;8838;50.144;8.176;2023-01-13T15:08:35;7.30;99.90
17442;DHT22;8838;50.144;8.176;2023-01-13T15:11:06;7.40;99.90
17442;DHT22;8838;50.144;8.176;2023-01-13T15:13:40;7.30;99.90
17442;DHT22;8838;50.144;8.176;2023-01-13T15:16:16;7.30;99.90
17442;DHT22;8838;50.144;8.176;2023-01-13T15:18:43;7.30;99.90
17442;DHT22;8838;50.144;8.176;2023-01-13T15:21:11;7.30;99.90
17442;DHT22;8838;50.144;8.176;2023-01-13T15:23:39;7.20;99.90
17442;DHT22;8838;50.144;8.176;2023-01-13T15:26:16;7.20;99.90
17442;DHT22;8838;50.144;8.176;2023-01-13T15:28:43;7.20;99.90
17442;DHT22;8838;50.144;8.176;2023-01-13T15:31:11;7.10;99.90
17442;DHT22;8838;50.144;8.176;2023-01-13T15:33:38;7.10;99.90
17442;DHT22;8838;50.144;8.176;2023-01-13T15:36:09;7.10;99.90
17442;DHT22;8838;50.144;8.176;2023-01-13T15:38:44;7.00;99.90
17442;DHT22;8838;50.144;8.176;2023-01-13T15:41:11;6.90;99.90
17442;DHT22;8838;50.144;8.176;2023-01-13T15:43:38;6.90;99.90
17442;DHT22;8838;50.144;8.176;2023-01-13T15:46:22;6.90;99.90
17442;DHT22;8838;50.144;8.176;2023-01-13T15:49:07;6.90;99.90
17442;DHT22;8838;50.144;8.176;2023-01-13T15:51:38;6.80;99.90
17442;DHT22;8838;50.144;8.176;2023-01-13T15:54:07;6.80;99.90
17442;DHT22;8838;50.144;8.176;2023-01-13T15:56:35;6.80;99.90
17442;DHT22;8838;50.144;8.176;2023-01-13T15:59:02;6.80;99.90
17442;DHT22;8838;50.144;8.176;2023-01-13T16:01:29;6.80;99.90
17442;DHT22;8838;50.144;8.176;2023-01-13T16:03:56;6.80;99.90
17442;DHT22;8838;50.144;8.176;2023-01-13T16:06:27;6.80;99.90
17442;DHT22;8838;50.144;8.176;2023-01-13T16:08:57;6.70;99.90
17442;DHT22;8838;50.144;8.176;2023-01-13T16:11:27;6.70;99.90
17442;DHT22;8838;50.144;8.176;2023-01-13T16:13:54;6.70;99.90
17442;DHT22;8838;50.144;8.176;2023-01-13T16:16:23;6.70;99.90
17442;DHT22;8838;50.144;8.176;2023-01-13T16:18:51;6.70;99.90
17442;DHT22;8838;50.144;8.176;2023-01-13T16:21:20;6.70;99.90
17442;DHT22;8838;50.144;8.176;2023-01-13T16:23:47;6.70;99.90
17442;DHT22;8838;50.144;8.176;2023-01-13T16:26:20;6.70;99.90
17442;DHT22;8838;50.144;8.176;2023-01-13T16:28:49;6.70;99.90
17442;DHT22;8838;50.144;8.176;2023-01-13T16:31:20;6.70;99.90
17442;DHT22;8838;50.144;8.176;2023-01-13T16:33:47;6.80;99.90
17442;DHT22;8838;50.144;8.176;2023-01-13T16:36:15;6.80;99.90
17442;DHT22;8838;50.144;8.176;2023-01-13T16:38:42;6.70;99.90
17442;DHT22;8838;50.144;8.176;2023-01-13T16:41:09;6.70;99.90
17442;DHT22;8838;50.144;8.176;2023-01-13T16:43:36;6.70;99.90
17442;DHT22;8838;50.144;8.176;2023-01-13T16:46:21;6.80;99.90
17442;DHT22;8838;50.144;8.176;2023-01-13T16:48:49;6.80;99.90